Time;durP1;ratioP1;P1;durP2;ratioP2;P2;SDS_P1;SDS_P2;PMS_P1;PMS_P2;Temp;Humidity;BMP_temperature;BMP_pressure;BME280_temperature;BME280_humidity;BME280_pressure;Samples;Min_cycle;Max_cycle;Signal;HPM_P1;HPM_P2
2021/01/06 00:01:40;;;;;;;4.13;2.43;;;;;;;3.82;100.00;101065.28;5029840;28;20232;-71
2021/01/06 00:04:05;;;;;;;2.90;2.47;;;;;;;3.84;100.00;101072.09;5030901;28;20176;-71
2021/01/06 00:06:31;;;;;;;3.17;2.60;;;;;;;3.81;100.00;101063.63;5013558;28;20269;-71
2021/01/06 00:09:02;;;;;;;2.90;2.33;;;;;;;3.89;100.00;101066.88;4998180;28;20222;-71
2021/01/06 00:11:40;;;;;;;4.47;2.70;;;;;;;3.77;100.00;101062.44;4975993;28;20593;-71
2021/01/06 00:14:07;;;;;;;3.27;2.40;;;;;;;3.81;100.00;101066.31;4991270;28;20218;-72
2021/01/06 00:16:33;;;;;;;5.53;2.50;;;;;;;3.82;100.00;101068.81;5013519;28;20727;-71
2021/01/06 00:18:58;;;;;;;3.33;2.50;;;;;;;3.74;100.00;101063.72;4982299;28;20192;-71
2021/01/06 00:21:24;;;;;;;3.43;2.40;;;;;;;3.79;100.00;101060.34;5007203;28;20232;-71
2021/01/06 00:23:50;;;;;;;3.40;2.20;;;;;;;3.81;100.00;101066.31;5012686;28;20275;-71
2021/01/06 00:26:15;;;;;;;2.57;2.17;;;;;;;3.85;100.00;101071.06;5010008;28;20217;-72
2021/01/06 00:28:43;;;;;;;2.57;2.20;;;;;;;3.83;100.00;101067.78;5010785;28;20192;-71
2021/01/06 00:31:09;;;;;;;3.33;1.90;;;;;;;3.79;100.00;101063.88;4993906;28;20217;-71
2021/01/06 00:33:35;;;;;;;4.20;2.30;;;;;;;3.82;100.00;101060.75;5010546;28;20280;-72
2021/01/06 00:36:11;;;;;;;2.20;2.00;;;;;;;3.87;100.00;101053.66;5009653;28;20772;-71
2021/01/06 00:38:37;;;;;;;3.40;2.00;;;;;;;3.90;100.00;101064.00;4994526;28;20196;-71
2021/01/06 00:41:03;;;;;;;2.87;2.03;;;;;;;3.79;100.00;101061.19;5008400;28;20240;-71
2021/01/06 00:43:29;;;;;;;3.10;2.03;;;;;;;3.76;100.00;101058.94;5010134;28;20173;-72
2021/01/06 00:45:54;;;;;;;3.20;2.00;;;;;;;3.83;100.00;101062.41;5009614;28;20213;-71
2021/01/06 00:48:20;;;;;;;2.63;2.10;;;;;;;3.87;100.00;101064.41;5010675;28;20646;-71
2021/01/06 00:50:49;;;;;;;3.07;2.20;;;;;;;3.69;100.00;101055.47;5009667;28;20744;-72
2021/01/06 00:53:23;;;;;;;2.37;1.87;;;;;;;3.72;100.00;101051.50;4995290;28;20185;-71
2021/01/06 00:55:54;;;;;;;3.03;2.00;;;;;;;3.79;100.00;101054.97;4974158;28;20217;-71
2021/01/06 00:58:20;;;;;;;3.83;2.30;;;;;;;3.84;100.00;101053.28;4991082;28;20713;-71
2021/01/06 01:00:47;;;;;;;3.47;2.37;;;;;;;3.73;100.00;101050.50;4973503;28;20240;-71
2021/01/06 01:03:15;;;;;;;2.57;1.80;;;;;;;3.78;100.00;101042.59;4990880;28;20674;-72
2021/01/06 01:05:46;;;;;;;5.40;2.40;;;;;;;3.71;100.00;101042.66;4989601;28;20225;-71
2021/01/06 01:08:14;;;;;;;3.57;2.50;;;;;;;3.84;100.00;101048.72;4974675;28;20213;-71
2021/01/06 01:10:48;;;;;;;3.37;2.07;;;;;;;3.74;100.00;101046.78;4975091;28;20315;-71
2021/01/06 01:13:18;;;;;;;4.03;2.17;;;;;;;3.66;100.00;101045.16;4997492;28;20184;-71
2021/01/06 01:15:45;;;;;;;3.80;2.00;;;;;;;3.55;100.00;101045.88;4980417;28;20245;-71
2021/01/06 01:18:13;;;;;;;4.50;2.37;;;;;;;3.62;100.00;101043.94;4996974;28;20201;-72
2021/01/06 01:20:43;;;;;;;4.40;2.33;;;;;;;3.61;100.00;101044.19;4996229;28;20259;-71
2021/01/06 01:23:08;;;;;;;3.43;2.57;;;;;;;3.55;100.00;101037.00;4981204;28;20592;-72
2021/01/06 01:25:34;;;;;;;3.20;2.03;;;;;;;3.57;100.00;101035.75;4996537;28;20271;-71
2021/01/06 01:28:00;;;;;;;2.40;2.20;;;;;;;3.60;100.00;101027.25;4997044;28;20194;-71
2021/01/06 01:30:26;;;;;;;2.83;2.23;;;;;;;3.59;100.00;101028.28;4996543;28;20213;-71
2021/01/06 01:32:52;;;;;;;2.90;2.50;;;;;;;3.54;100.00;101025.44;5013336;28;20216;-71
2021/01/06 01:35:23;;;;;;;2.97;2.03;;;;;;;3.53;100.00;101034.50;5012328;28;20186;-72
2021/01/06 01:37:55;;;;;;;3.10;2.20;;;;;;;3.44;100.00;101025.09;4981903;28;20216;-71
2021/01/06 01:40:25;;;;;;;3.33;2.53;;;;;;;3.47;100.00;101034.56;4980690;28;20221;-71
2021/01/06 01:43:03;;;;;;;4.30;2.80;;;;;;;3.45;100.00;101024.06;4980915;28;20205;-72
2021/01/06 01:45:40;;;;;;;3.27;2.30;;;;;;;3.45;100.00;101026.72;4995889;28;20309;-71
2021/01/06 01:48:18;;;;;;;3.03;2.60;;;;;;;3.51;100.00;101025.84;4981149;28;20263;-71
2021/01/06 01:50:43;;;;;;;3.90;2.40;;;;;;;3.43;100.00;101016.44;4996302;28;20229;-71
2021/01/06 01:53:15;;;;;;;2.70;2.30;;;;;;;3.47;100.00;101019.28;4981077;28;20192;-71
2021/01/06 01:55:41;;;;;;;3.20;2.53;;;;;;;3.46;100.00;101017.66;4980407;28;20222;-72
2021/01/06 01:58:09;;;;;;;3.70;2.20;;;;;;;3.39;100.00;101015.22;4980901;28;20185;-71
2021/01/06 02:00:37;;;;;;;3.40;2.60;;;;;;;3.35;100.00;101014.00;4980348;28;20307;-71
2021/01/06 02:03:08;;;;;;;3.10;2.20;;;;;;;3.40;100.00;101011.50;4980461;28;20593;-72
2021/01/06 02:05:37;;;;;;;2.77;2.40;;;;;;;3.43;100.00;101016.44;4996158;28;20225;-71
2021/01/06 02:08:26;;;;;;;3.30;2.53;;;;;;;3.40;100.00;101011.50;4980487;28;20182;-71
2021/01/06 02:11:16;;;;;;;2.53;2.33;;;;;;;3.37;100.00;101010.09;4996617;28;20278;-71
2021/01/06 02:13:45;;;;;;;3.63;2.53;;;;;;;3.29;100.00;101014.88;4983062;28;20193;-72
2021/01/06 02:16:33;;;;;;;4.73;2.90;;;;;;;3.32;100.00;101009.09;4980318;28;20573;-71
2021/01/06 02:18:59;;;;;;;3.57;2.50;;;;;;;3.31;100.00;101002.88;4996897;28;20186;-72
2021/01/06 02:21:25;;;;;;;3.27;2.63;;;;;;;3.35;100.00;101014.84;4979785;28;20257;-72
2021/01/06 02:23:58;;;;;;;3.07;2.67;;;;;;;3.28;100.00;100997.13;4977413;28;20198;-71
2021/01/06 02:26:24;;;;;;;2.83;2.43;;;;;;;3.23;100.00;100999.66;4977086;28;20222;-72
2021/01/06 02:28:50;;;;;;;3.03;2.67;;;;;;;3.25;100.00;101003.75;4977987;28;20690;-71
2021/01/06 02:31:18;;;;;;;5.80;3.50;;;;;;;3.27;100.00;101001.69;4976872;28;20308;-72
2021/01/06 02:33:46;;;;;;;4.87;2.97;;;;;;;3.35;100.00;100992.53;4977594;28;20189;-72
2021/01/06 02:36:14;;;;;;;5.03;3.10;;;;;;;3.31;100.00;100992.16;4977258;28;20221;-72
2021/01/06 02:38:41;;;;;;;5.33;3.10;;;;;;;3.23;100.00;100991.59;4978714;28;20207;-71
2021/01/06 02:41:10;;;;;;;3.57;2.73;;;;;;;3.18;100.00;100994.09;4976665;28;20244;-72
2021/01/06 02:43:38;;;;;;;3.37;3.00;;;;;;;3.17;100.00;100985.25;4977590;28;20181;-72
2021/01/06 02:46:04;;;;;;;6.80;3.03;;;;;;;3.16;100.00;100988.13;4975600;28;20249;-71
2021/01/06 02:48:32;;;;;;;3.93;3.37;;;;;;;3.08;100.00;100988.41;4977108;28;20186;-72
2021/01/06 02:51:00;;;;;;;4.50;3.10;;;;;;;3.19;100.00;100987.72;4975415;28;20233;-71
2021/01/06 02:53:35;;;;;;;4.00;3.10;;;;;;;3.12;100.00;100987.75;4977335;28;20190;-72
2021/01/06 02:56:02;;;;;;;4.00;2.80;;;;;;;3.10;100.00;100980.97;4976704;28;20704;-71
2021/01/06 02:58:28;;;;;;;4.90;3.33;;;;;;;3.01;100.00;100981.44;4977123;28;20187;-72
2021/01/06 03:00:54;;;;;;;5.10;3.33;;;;;;;3.05;100.00;100978.09;4975890;28;20221;-72
2021/01/06 03:03:25;;;;;;;6.20;3.50;;;;;;;3.07;100.00;100978.69;4976573;28;20260;-71
2021/01/06 03:06:12;;;;;;;4.40;3.40;;;;;;;3.19;100.00;100976.97;4976314;28;20276;-72
2021/01/06 03:08:38;;;;;;;4.80;3.63;;;;;;;3.12;100.00;100984.25;4992096;28;20202;-71
2021/01/06 03:11:07;;;;;;;3.70;3.27;;;;;;;3.04;100.00;100979.16;4991682;28;20225;-71
2021/01/06 03:13:35;;;;;;;6.33;3.80;;;;;;;3.08;100.00;100975.00;4992908;28;20185;-72
2021/01/06 03:16:01;;;;;;;6.53;3.57;;;;;;;3.00;100.00;100972.53;4975379;28;20222;-72
2021/01/06 03:18:27;;;;;;;5.07;3.63;;;;;;;2.93;100.00;100965.56;4976513;28;20201;-71
2021/01/06 03:20:54;;;;;;;3.57;3.27;;;;;;;2.84;100.00;100973.06;5007827;28;20233;-71
2021/01/06 03:23:50;;;;;;;6.13;4.00;;;;;;;2.86;100.00;100964.81;4976361;28;20269;-71
2021/01/06 03:26:17;;;;;;;8.77;4.00;;;;;;;2.98;100.00;100971.13;4975944;28;20252;-71
2021/01/06 03:28:45;;;;;;;5.93;3.60;;;;;;;2.94;100.00;100975.28;4976417;28;20182;-71
2021/01/06 03:31:15;;;;;;;6.07;4.43;;;;;;;2.89;100.00;100970.56;4991389;28;20229;-72
2021/01/06 03:33:45;;;;;;;5.93;3.47;;;;;;;2.90;100.00;100961.47;4976052;28;20189;-71
2021/01/06 03:36:20;;;;;;;6.13;4.10;;;;;;;2.76;100.00;100959.09;4974238;28;20225;-71
2021/01/06 03:38:58;;;;;;;5.43;4.57;;;;;;;2.80;100.00;100961.13;4977487;28;20623;-72
2021/01/06 03:41:24;;;;;;;5.83;3.60;;;;;;;2.68;100.00;100962.84;4971554;28;20767;-71
2021/01/06 03:43:51;;;;;;;5.93;4.17;;;;;;;2.80;100.00;100955.78;4988917;28;20185;-71
2021/01/06 03:47:03;;;;;;;7.20;4.00;;;;;;;2.82;100.00;100956.38;4974798;28;20221;-72
2021/01/06 03:49:45;;;;;;;4.87;4.13;;;;;;;2.80;100.00;100950.41;4933014;29;20238;-72
2021/01/06 03:52:28;;;;;;;4.97;3.57;;;;;;;2.75;100.00;100947.53;4988626;28;20229;-72
2021/01/06 03:55:18;;;;;;;4.43;3.60;;;;;;;2.77;100.00;100944.66;5007672;28;20590;-71
2021/01/06 03:57:47;;;;;;;5.07;4.30;;;;;;;2.79;100.00;100943.41;5016817;28;20861;-71
2021/01/06 04:00:31;;;;;;;6.27;4.20;;;;;;;2.72;100.00;100947.97;5014497;28;20208;-71
2021/01/06 04:03:00;;;;;;;5.90;3.90;;;;;;;2.67;100.00;100950.50;5014789;28;20212;-71
2021/01/06 04:05:27;;;;;;;9.17;4.30;;;;;;;2.77;100.00;100940.09;5024900;28;20292;-72
2021/01/06 04:07:56;;;;;;;6.60;3.90;;;;;;;2.76;100.00;100938.44;5006174;28;20259;-71
2021/01/06 04:10:35;;;;;;;5.73;3.60;;;;;;;2.69;100.00;100926.97;5010308;28;20173;-71
2021/01/06 04:13:05;;;;;;;4.20;3.33;;;;;;;2.71;100.00;100929.41;4987569;28;20258;-72
2021/01/06 04:15:31;;;;;;;7.10;3.53;;;;;;;2.79;100.00;100927.31;4980748;28;20637;-72
2021/01/06 04:17:57;;;;;;;6.17;4.63;;;;;;;2.65;100.00;100934.81;4998151;28;20184;-71
2021/01/06 04:20:36;;;;;;;4.93;4.03;;;;;;;2.73;100.00;100928.16;4999105;28;20266;-72
2021/01/06 04:23:23;;;;;;;5.53;3.83;;;;;;;2.74;100.00;100926.31;4977226;28;20209;-71
2021/01/06 04:25:53;;;;;;;6.70;4.20;;;;;;;2.62;100.00;100930.72;4996276;28;20698;-72
2021/01/06 04:28:23;;;;;;;5.70;4.20;;;;;;;2.67;100.00;100923.69;4995487;28;20239;-71
2021/01/06 04:30:53;;;;;;;5.17;3.90;;;;;;;2.74;100.00;100924.44;4996086;28;20765;-72
2021/01/06 04:33:31;;;;;;;5.80;4.27;;;;;;;2.70;100.00;100925.09;4996884;28;20196;-72
2021/01/06 04:35:58;;;;;;;5.63;4.10;;;;;;;2.75;100.00;100912.69;5032307;28;20231;-72
2021/01/06 04:38:32;;;;;;;6.30;3.80;;;;;;;2.78;100.00;100911.44;5007478;28;20181;-71
2021/01/06 04:41:00;;;;;;;5.60;3.83;;;;;;;2.75;100.00;100915.38;5016484;28;20232;-72
2021/01/06 04:43:40;;;;;;;9.53;4.70;;;;;;;2.66;100.00;100907.81;5014974;28;20193;-72
2021/01/06 04:46:36;;;;;;;6.33;4.30;;;;;;;2.76;100.00;100900.91;4994531;28;20231;-72
2021/01/06 04:49:30;;;;;;;5.73;3.70;;;;;;;2.64;100.00;100901.00;4951539;28;20216;-72
2021/01/06 04:51:58;;;;;;;4.23;3.83;;;;;;;2.63;100.00;100896.69;4985122;28;20752;-72
2021/01/06 04:54:50;;;;;;;5.17;3.73;;;;;;;2.69;100.00;100896.63;5011852;28;20244;-74
2021/01/06 04:57:40;;;;;;;5.37;4.00;;;;;;;2.65;100.00;100891.94;5004770;28;20610;-73
2021/01/06 05:00:16;;;;;;;4.73;3.60;;;;;;;2.67;100.00;100891.50;5011563;28;20674;-73
2021/01/06 05:02:54;;;;;;;5.67;4.00;;;;;;;2.66;100.00;100893.59;5011603;28;20619;-73
2021/01/06 05:05:41;;;;;;;4.57;2.93;;;;;;;2.57;100.00;100900.22;5010881;28;20189;-74
2021/01/06 05:08:31;;;;;;;5.60;4.13;;;;;;;2.48;100.00;100896.97;5012983;28;20400;-73
2021/01/06 05:11:29;;;;;;;6.67;3.77;;;;;;;2.57;100.00;100901.03;5026494;28;20227;-73
2021/01/06 05:13:59;;;;;;;5.10;3.97;;;;;;;2.59;100.00;100898.97;4996322;28;20177;-73
2021/01/06 05:16:34;;;;;;;6.43;4.07;;;;;;;2.55;100.00;100899.63;5003934;28;20597;-74
2021/01/06 05:19:00;;;;;;;6.13;4.03;;;;;;;2.59;100.00;100898.16;5030295;28;20190;-73
2021/01/06 05:21:31;;;;;;;6.03;4.60;;;;;;;2.49;100.00;100887.06;4996603;28;20224;-73
2021/01/06 05:24:03;;;;;;;6.57;4.50;;;;;;;2.49;100.00;100893.25;4997510;28;20188;-73
2021/01/06 05:26:28;;;;;;;4.73;3.93;;;;;;;2.62;100.00;100897.72;5012659;28;20216;-73
2021/01/06 05:28:54;;;;;;;4.97;4.37;;;;;;;2.50;100.00;100888.72;5013021;28;20188;-73
2021/01/06 05:31:23;;;;;;;6.27;4.57;;;;;;;2.48;100.00;100882.75;5029018;28;20220;-73
2021/01/06 05:33:54;;;;;;;5.83;4.47;;;;;;;2.53;100.00;100894.47;5030250;28;20654;-73
2021/01/06 05:36:25;;;;;;;6.67;4.57;;;;;;;2.65;100.00;100887.38;4997239;28;20216;-73
2021/01/06 05:38:51;;;;;;;6.00;4.53;;;;;;;2.60;100.00;100884.53;4981112;28;20244;-73
2021/01/06 05:41:19;;;;;;;5.17;4.00;;;;;;;2.61;100.00;100880.00;4995910;28;20259;-73
2021/01/06 05:43:51;;;;;;;4.83;4.20;;;;;;;2.60;100.00;100873.81;5021456;28;20197;-74
2021/01/06 05:46:32;;;;;;;6.80;4.70;;;;;;;2.62;100.00;100876.25;4996975;28;20227;-74
2021/01/06 05:49:00;;;;;;;4.77;4.00;;;;;;;2.61;100.00;100875.44;4998405;28;20225;-73
2021/01/06 05:51:30;;;;;;;5.37;4.20;;;;;;;2.65;100.00;100878.53;5012270;28;20228;-74
2021/01/06 05:53:57;;;;;;;5.90;4.43;;;;;;;2.74;100.00;100876.19;5013835;28;20191;-73
2021/01/06 05:56:35;;;;;;;5.87;5.00;;;;;;;2.73;100.00;100871.88;5025277;28;20216;-73
2021/01/06 05:59:40;;;;;;;5.60;4.20;;;;;;;2.70;100.00;100869.59;5002686;28;20189;-73
2021/01/06 06:02:18;;;;;;;6.07;4.20;;;;;;;2.78;100.00;100861.31;5029416;28;20240;-73
2021/01/06 06:05:21;;;;;;;4.80;4.30;;;;;;;2.57;100.00;100868.06;5013600;28;20602;-74
2021/01/06 06:08:14;;;;;;;6.60;4.40;;;;;;;2.63;100.00;100867.19;5014514;28;20213;-74
2021/01/06 06:10:39;;;;;;;6.73;4.60;;;;;;;2.67;100.00;100867.38;5012902;28;20225;-73
2021/01/06 06:13:37;;;;;;;7.23;4.97;;;;;;;2.78;100.00;100861.31;5014814;28;20212;-73
2021/01/06 06:16:20;;;;;;;5.47;3.83;;;;;;;2.72;100.00;100862.16;5020563;28;20225;-74
2021/01/06 06:18:57;;;;;;;5.43;4.60;;;;;;;2.69;100.00;100854.56;5049465;28;20242;-73
2021/01/06 06:21:59;;;;;;;6.60;4.47;;;;;;;2.74;100.00;100854.72;5000783;28;20238;-74
2021/01/06 06:24:56;;;;;;;6.43;4.70;;;;;;;2.67;100.00;100846.97;4949745;28;20677;-73
2021/01/06 06:27:31;;;;;;;6.07;4.50;;;;;;;2.75;100.00;100852.88;4983167;28;20220;-75
2021/01/06 06:30:05;;;;;;;5.93;4.40;;;;;;;2.58;100.00;100859.78;5015812;28;20185;-73
2021/01/06 06:32:31;;;;;;;5.57;4.70;;;;;;;2.65;100.00;100857.06;5029559;28;20627;-73
2021/01/06 06:35:18;;;;;;;6.00;4.17;;;;;;;2.65;100.00;100862.44;5013169;28;20185;-73
2021/01/06 06:37:58;;;;;;;6.10;5.00;;;;;;;2.61;100.00;100854.00;4996817;28;20750;-73
2021/01/06 06:40:44;;;;;;;5.40;4.40;;;;;;;2.68;100.00;100863.66;4994191;28;20224;-73
2021/01/06 06:43:13;;;;;;;4.87;4.33;;;;;;;2.69;100.00;100851.91;5010974;28;20239;-73
2021/01/06 06:45:38;;;;;;;5.90;4.50;;;;;;;2.58;100.00;100851.75;4995224;28;20760;-73
2021/01/06 06:48:41;;;;;;;7.37;4.53;;;;;;;2.62;100.00;100854.81;5028860;28;20193;-73
2021/01/06 06:51:28;;;;;;;5.80;4.23;;;;;;;2.69;100.00;100854.56;5027710;28;20254;-73
2021/01/06 06:54:04;;;;;;;6.07;4.17;;;;;;;2.68;100.00;100847.56;4996128;28;20326;-75
2021/01/06 06:56:41;;;;;;;7.73;5.30;;;;;;;2.70;100.00;100842.00;5011081;28;20706;-73
2021/01/06 06:59:10;;;;;;;5.87;4.80;;;;;;;2.78;100.00;100845.25;4996739;28;20185;-73
2021/01/06 07:01:39;;;;;;;5.53;4.80;;;;;;;2.69;100.00;100838.50;5027914;28;20232;-73
2021/01/06 07:04:20;;;;;;;7.47;4.47;;;;;;;2.75;100.00;100834.13;4996175;28;20188;-73
2021/01/06 07:06:58;;;;;;;7.23;4.60;;;;;;;2.75;100.00;100834.94;5011675;28;20224;-73
2021/01/06 07:09:32;;;;;;;6.73;4.97;;;;;;;2.63;100.00;100835.03;4996168;28;20191;-73
2021/01/06 07:12:11;;;;;;;5.83;4.53;;;;;;;2.76;100.00;100831.19;4992785;28;20753;-73
2021/01/06 07:14:38;;;;;;;6.20;4.93;;;;;;;2.79;100.00;100841.50;5011694;28;20204;-74
2021/01/06 07:17:14;;;;;;;7.53;5.33;;;;;;;2.71;100.00;100839.09;5027417;28;20231;-73
2021/01/06 07:19:49;;;;;;;6.37;4.67;;;;;;;2.68;100.00;100844.06;5000963;28;20331;-73
2021/01/06 07:22:23;;;;;;;5.47;4.67;;;;;;;2.78;100.00;100836.34;5047655;28;20235;-73
2021/01/06 07:24:54;;;;;;;6.63;4.73;;;;;;;2.76;100.00;100838.44;5047736;28;20215;-73
2021/01/06 07:27:22;;;;;;;6.77;4.83;;;;;;;2.74;100.00;100837.81;5014777;28;20295;-72
2021/01/06 07:29:51;;;;;;;5.93;4.70;;;;;;;2.65;100.00;100841.81;4999414;28;20199;-73
2021/01/06 07:32:17;;;;;;;5.93;4.83;;;;;;;2.75;100.00;100834.94;5030906;28;20235;-72
2021/01/06 07:34:50;;;;;;;6.03;4.67;;;;;;;2.66;100.00;100837.28;4998009;28;20271;-73
2021/01/06 07:37:33;;;;;;;6.93;4.53;;;;;;;2.57;100.00;100831.34;5031009;28;20232;-74
2021/01/06 07:40:17;;;;;;;6.07;4.93;;;;;;;2.64;100.00;100842.88;5031206;28;20704;-72
2021/01/06 07:43:11;;;;;;;5.77;4.80;;;;;;;2.80;100.00;100837.78;5008577;28;20323;-73
2021/01/06 07:45:39;;;;;;;7.60;4.60;;;;;;;2.62;100.00;100836.91;4978729;28;20698;-74
2021/01/06 07:48:17;;;;;;;6.03;5.17;;;;;;;2.56;100.00;100839.59;4976284;28;20205;-73
2021/01/06 07:50:56;;;;;;;6.53;4.60;;;;;;;2.55;100.00;100832.63;4993008;28;20275;-73
2021/01/06 07:53:21;;;;;;;6.83;4.70;;;;;;;2.72;100.00;100838.03;4977286;28;20681;-73
2021/01/06 07:55:56;;;;;;;6.63;4.50;;;;;;;2.54;100.00;100839.00;4974416;28;20229;-73
2021/01/06 07:58:33;;;;;;;6.47;5.10;;;;;;;2.59;100.00;100844.53;4991928;28;20181;-73
2021/01/06 08:00:59;;;;;;;7.90;4.63;;;;;;;2.59;100.00;100833.81;4975299;28;20229;-73
2021/01/06 08:03:48;;;;;;;8.03;5.67;;;;;;;2.68;100.00;100839.50;4991810;28;20647;-73
2021/01/06 08:06:14;;;;;;;5.00;4.47;;;;;;;2.63;100.00;100851.13;4959048;28;20229;-73
2021/01/06 08:08:49;;;;;;;6.37;4.90;;;;;;;2.81;100.00;100835.94;4959224;28;20204;-73
2021/01/06 08:11:20;;;;;;;5.67;4.40;;;;;;;2.57;100.00;100843.94;4967416;28;20278;-73
2021/01/06 08:13:48;;;;;;;7.67;5.07;;;;;;;2.64;100.00;100836.66;4994508;28;20191;-73
2021/01/06 08:16:43;;;;;;;6.37;5.20;;;;;;;2.67;100.00;100837.88;5026614;28;20240;-73
2021/01/06 08:19:28;;;;;;;5.90;4.90;;;;;;;2.65;100.00;100843.66;5010962;28;20181;-73
2021/01/06 08:21:57;;;;;;;8.27;4.90;;;;;;;2.53;100.00;100838.19;5009662;28;20241;-73
2021/01/06 08:24:29;;;;;;;8.80;4.90;;;;;;;2.55;100.00;100828.06;5010339;28;20251;-73
2021/01/06 08:26:59;;;;;;;8.23;4.60;;;;;;;2.54;100.00;100829.09;5010169;28;20272;-75
2021/01/06 08:29:36;;;;;;;6.03;4.60;;;;;;;2.40;100.00;100829.41;4994402;28;20185;-73
2021/01/06 08:32:13;;;;;;;5.10;4.47;;;;;;;2.42;100.00;100838.06;4975574;28;20239;-73
2021/01/06 08:34:52;;;;;;;7.03;4.43;;;;;;;2.44;100.00;100830.63;4990669;28;20674;-73
2021/01/06 08:37:22;;;;;;;9.53;6.77;;;;;;;2.53;100.00;100824.78;4975871;28;20224;-73
2021/01/06 08:39:54;;;;;;;6.60;4.67;;;;;;;2.53;100.00;100829.34;4991023;28;20200;-73
2021/01/06 08:42:26;;;;;;;6.53;5.20;;;;;;;2.54;100.00;100821.06;4989093;28;20225;-73
2021/01/06 08:44:56;;;;;;;8.70;4.97;;;;;;;2.51;100.00;100826.88;4974005;28;20200;-73
2021/01/06 08:47:40;;;;;;;7.73;5.30;;;;;;;2.54;100.00;100825.59;4990040;28;20360;-72
2021/01/06 08:50:14;;;;;;;6.83;4.63;;;;;;;2.76;100.00;100820.47;4990391;28;20216;-73
2021/01/06 08:52:42;;;;;;;7.63;5.13;;;;;;;2.53;100.00;100822.13;5006215;28;20223;-73
2021/01/06 08:55:38;;;;;;;7.27;5.30;;;;;;;2.44;100.00;100819.91;4974186;28;20174;-73
2021/01/06 08:58:05;;;;;;;11.03;8.00;;;;;;;2.49;100.00;100820.06;4989828;28;20562;-73
2021/01/06 09:01:03;;;;;;;8.77;5.63;;;;;;;2.63;100.00;100817.06;4989757;28;20247;-72
2021/01/06 09:03:47;;;;;;;8.67;5.77;;;;;;;2.74;100.00;100817.19;4991693;28;20202;-73
2021/01/06 09:06:27;;;;;;;8.17;5.00;;;;;;;2.65;100.00;100822.22;5005990;28;20636;-73
2021/01/06 09:09:14;;;;;;;7.00;6.27;;;;;;;2.52;100.00;100822.31;4990668;28;20228;-72
2021/01/06 09:11:50;;;;;;;6.60;5.50;;;;;;;2.61;100.00;100818.34;4946568;28;20237;-73
2021/01/06 09:14:16;;;;;;;9.77;6.67;;;;;;;2.67;100.00;100813.75;4963694;28;20554;-72
2021/01/06 09:17:15;;;;;;;9.07;6.27;;;;;;;2.79;100.00;100820.03;4986651;28;20226;-73
2021/01/06 09:19:45;;;;;;;7.97;6.77;;;;;;;2.65;100.00;100819.53;4968279;28;20191;-72
2021/01/06 09:22:13;;;;;;;10.73;6.53;;;;;;;2.63;100.00;100811.72;4970467;28;20257;-73
2021/01/06 09:24:42;;;;;;;8.90;7.07;;;;;;;2.83;100.00;100817.75;4986612;28;20209;-73
2021/01/06 09:27:26;;;;;;;9.17;6.77;;;;;;;2.50;100.00;100817.16;4987032;28;20301;-73
2021/01/06 09:29:52;;;;;;;9.80;6.13;;;;;;;2.67;100.00;100804.06;4971274;28;20182;-73
2021/01/06 09:32:24;;;;;;;7.70;6.20;;;;;;;2.44;100.00;100809.19;4971822;28;20229;-73
2021/01/06 09:35:00;;;;;;;8.43;5.70;;;;;;;2.57;100.00;100807.22;4975230;28;20579;-73
2021/01/06 09:37:32;;;;;;;9.90;6.73;;;;;;;2.43;100.00;100802.19;4974750;28;20224;-72
2021/01/06 09:40:10;;;;;;;7.53;5.93;;;;;;;2.62;100.00;100801.22;4991111;28;20190;-73
2021/01/06 09:42:38;;;;;;;10.33;6.50;;;;;;;2.68;100.00;100801.16;5005474;28;20643;-73
2021/01/06 09:45:06;;;;;;;12.03;7.17;;;;;;;2.66;100.00;100805.13;4977990;28;20274;-73
2021/01/06 09:47:36;;;;;;;8.30;6.30;;;;;;;2.72;100.00;100803.19;5030635;28;20307;-73
2021/01/06 09:50:26;;;;;;;8.23;6.50;;;;;;;2.52;100.00;100796.34;4998890;28;20213;-73
2021/01/06 09:52:54;;;;;;;8.57;6.87;;;;;;;2.62;100.00;100798.53;4963836;28;20217;-73
2021/01/06 09:55:21;;;;;;;8.40;7.17;;;;;;;2.59;100.00;100793.63;4976876;28;20212;-72
2021/01/06 09:57:49;;;;;;;8.07;6.60;;;;;;;2.67;100.00;100794.16;4978349;28;20194;-73
2021/01/06 10:00:48;;;;;;;10.07;7.43;;;;;;;2.87;100.00;100795.63;4978019;28;20202;-73
2021/01/06 10:03:13;;;;;;;7.60;6.70;;;;;;;2.75;100.00;100792.03;4981042;28;20186;-73
2021/01/06 10:06:13;;;;;;;9.00;6.37;;;;;;;2.53;100.00;100798.00;4993323;28;20244;-73
2021/01/06 10:09:27;;;;;;;8.50;7.33;;;;;;;2.49;100.00;100787.91;4994572;28;20239;-73
2021/01/06 10:12:32;;;;;;;15.13;10.13;;;;;;;2.63;100.00;100784.91;4988168;28;20236;-73
2021/01/06 10:15:43;;;;;;;7.50;6.37;;;;;;;2.59;100.00;100782.91;5029658;28;20201;-73
2021/01/06 10:18:26;;;;;;;9.30;8.17;;;;;;;2.74;100.00;100782.34;4995141;28;20307;-73
2021/01/06 10:21:14;;;;;;;7.27;6.20;;;;;;;2.78;100.00;100775.53;5012338;28;20267;-73
2021/01/06 10:23:57;;;;;;;7.67;6.07;;;;;;;2.82;100.00;100775.88;5013207;28;20219;-73
2021/01/06 10:26:41;;;;;;;6.77;5.40;;;;;;;2.54;100.00;100777.34;4992955;28;20217;-73
2021/01/06 10:29:14;;;;;;;10.13;7.30;;;;;;;2.73;100.00;100775.34;5009791;28;20728;-73
2021/01/06 10:32:12;;;;;;;9.13;6.63;;;;;;;2.61;100.00;100778.13;4993399;28;20673;-73
2021/01/06 10:34:44;;;;;;;7.37;5.90;;;;;;;2.60;100.00;100768.44;4988637;28;20264;-73
2021/01/06 10:37:27;;;;;;;8.30;6.17;;;;;;;2.45;100.00;100757.22;4977256;28;20224;-73
2021/01/06 10:40:15;;;;;;;7.77;5.70;;;;;;;2.39;100.00;100758.91;4977256;28;20232;-73
2021/01/06 10:42:40;;;;;;;7.40;5.70;;;;;;;2.44;100.00;100761.78;5012562;28;20216;-73
2021/01/06 10:45:09;;;;;;;9.17;5.90;;;;;;;2.62;100.00;100763.69;4991465;28;20186;-72
2021/01/06 10:47:34;;;;;;;8.33;5.90;;;;;;;2.66;100.00;100755.00;4993160;28;20201;-73
2021/01/06 10:50:09;;;;;;;7.03;6.07;;;;;;;2.52;100.00;100752.63;5009483;28;20198;-72
2021/01/06 10:52:59;;;;;;;7.40;5.73;;;;;;;2.56;100.00;100743.13;5013605;28;20224;-72
2021/01/06 10:55:56;;;;;;;6.40;5.40;;;;;;;2.65;100.00;100747.16;5028354;28;20220;-74
2021/01/06 10:58:49;;;;;;;6.83;5.97;;;;;;;2.56;100.00;100740.44;5004723;28;20189;-72
2021/01/06 11:01:25;;;;;;;7.47;6.20;;;;;;;2.41;100.00;100739.94;5028948;28;20631;-73
2021/01/06 11:04:23;;;;;;;7.30;6.13;;;;;;;2.50;100.00;100734.09;5013408;28;20185;-72
2021/01/06 11:07:15;;;;;;;8.00;6.20;;;;;;;2.64;100.00;100724.06;5011896;28;20652;-72
2021/01/06 11:10:02;;;;;;;6.10;5.50;;;;;;;2.85;100.00;100725.31;5015438;28;20234;-72
2021/01/06 11:12:59;;;;;;;6.10;5.13;;;;;;;2.68;100.00;100724.25;5011627;28;20759;-72
2021/01/06 11:15:36;;;;;;;5.77;5.03;;;;;;;2.62;100.00;100720.78;4992188;28;20671;-72
2021/01/06 11:18:13;;;;;;;6.57;5.60;;;;;;;2.62;100.00;100716.28;4977101;28;20181;-72
2021/01/06 11:20:45;;;;;;;9.33;7.50;;;;;;;2.64;100.00;100711.50;4993044;28;20257;-73
2021/01/06 11:23:51;;;;;;;6.60;5.53;;;;;;;2.80;100.00;100714.44;5008374;28;20221;-72
2021/01/06 11:26:30;;;;;;;7.43;6.60;;;;;;;2.83;100.00;100716.66;4998396;28;20268;-73
2021/01/06 11:29:13;;;;;;;8.80;7.77;;;;;;;2.82;100.00;100696.28;4992302;28;20670;-73
2021/01/06 11:31:50;;;;;;;9.03;7.43;;;;;;;2.87;100.00;100693.72;4993033;28;20308;-72
2021/01/06 11:34:15;;;;;;;6.37;5.73;;;;;;;2.92;100.00;100691.22;4991910;28;20178;-72
2021/01/06 11:36:56;;;;;;;6.63;5.93;;;;;;;2.84;100.00;100688.81;5008002;28;20229;-72
2021/01/06 11:39:28;;;;;;;7.20;6.50;;;;;;;2.73;100.00;100692.25;5008184;28;20653;-72
2021/01/06 11:41:55;;;;;;;6.33;5.33;;;;;;;2.78;100.00;100680.84;5010655;28;20232;-73
2021/01/06 11:44:21;;;;;;;5.33;4.83;;;;;;;2.91;100.00;100684.22;5011353;28;20712;-73
2021/01/06 11:47:04;;;;;;;7.23;5.90;;;;;;;2.94;100.00;100678.41;5008201;28;20594;-73
2021/01/06 11:49:42;;;;;;;7.33;6.30;;;;;;;2.94;100.00;100675.72;5031409;28;20191;-73
2021/01/06 11:52:31;;;;;;;5.80;4.57;;;;;;;2.86;100.00;100665.28;5046817;28;20248;-73
2021/01/06 11:55:19;;;;;;;4.50;4.10;;;;;;;3.00;100.00;100663.28;5030564;28;20176;-72
2021/01/06 11:58:09;;;;;;;5.40;4.63;;;;;;;3.11;100.00;100650.78;4983014;28;20232;-73
2021/01/06 12:00:41;;;;;;;5.20;4.70;;;;;;;2.94;100.00;100656.94;5047278;28;20311;-72
2021/01/06 12:03:06;;;;;;;5.30;4.80;;;;;;;2.81;100.00;100656.28;5047585;28;20741;-73